KAQW/AQW METAR and TAF weather

Enter ICAO airport designator
Station Type Date Time Source
KAQW METAR 2021/07/26 12:52 UTC NOAA

KAQW 261252Z AUTO 00000KT 4SM BR OVC003 19/19 A2992 RMK AO2 SLP129 T01940189


Station Type Date Time Source
KAQW Decoded METAR 2021/07/26 12:52 UTC NOAA

N ADAMS HARRIMAN-AND-WEST, MA, United States (KAQW) 42-42N 073-10W 201M
Jul 26, 2021 - 08:52 AM EDT / 2021.07.26 1252 UTC
Wind: Calm:0
Visibility: 4 mile(s):0
Sky conditions: overcast
Weather: mist
Temperature: 66.9 F (19.4 C)
Dew Point: 66.0 F (18.9 C)
Relative Humidity: 96%
Pressure (altimeter): 29.92 in. Hg (1013 hPa)
ob: KAQW 261252Z AUTO 00000KT 4SM BR OVC003 19/19 A2992 RMK AO2 SLP129 T01940189
cycle: 13

Station Type Date Time Source
KAQW TAF UTC NOAA

Error!

Example: see airport list